الصفحة الرئيسية
METAR-TAF:

METAR-TAF

مطار :

مطار ميتشيل رومان الدولي

كورور, Babeldaob, بالاو

دائرة عرض: 07-22N, خط طول: 134-32E, ارتفاع: 54 متر

مراقبة الطقس الحالي

تاريخ ووقت الإصدار 41 دقيقة قبل الساعة 14:50UTC
رياح هادئة
درجة الحرارة 25°درجة مئوية
الرطوبة 83%
ضغط 1010 hPa
الرؤية: 22.5 كم
غيوم قليلة على ارتفاع 1600 قدم
غيوم متفرقة على ارتفاع 11000 قدم
غيوم متفرقة على ارتفاع 29000 قدم

METAR: PTRO 061450Z 00000KT 14SM FEW016 SCT110 SCT290 25/22 A2983

زمن: 00:31 (15:31 UTC)

توقعات

تاريخ ووقت الإصدار 4ساعات و 11 دقيقة قبل الساعة 11:20UTC
التوقعات صالحة من06 الساعة 12 UTC إلى 07 الساعة 12 UTC
ريح 7 عقدة من الشمال/الشمال الشرقي
الرؤية: 10 كم
غيوم متفرقة على ارتفاع 1600 قدم
غيوم متفرقة على ارتفاع 11000 قدم
زخات في الجوار

TAF: PTRO 061120Z 0612/0712 02007KT P6SM VCSH SCT016 SCT110

أرصاد الطقس والتوقعات من أكثر من 4000 مطار (تقارير الطقس للمطار METAR والتنبؤ بالطقس بالمطارTAF).

المحطات المتاحة هي النقط الصفراء والحمراء على الخريطة.

حرك المؤشر فوق النقطة لمعرفة اسم المحطة.

ثم انقر لمعرفة أرصاد وتوقعات الطقس.

لتغيير الخارطة: اضغط على الأزرار الخضراء مع رمز الصليب الأسود للتكبير. على الزر الأخضر مع شرطة للتصغير، أو على الأسهم الخضراء للخرائط المجاورة.


METAR-TAF: